sensor_id;sensor_type;location;lat;lon;timestamp;temperature;humidity
18169;DHT22;49877;50.398;30.324;2022-07-29T00:00:14;19.50;99.90
18169;DHT22;49877;50.398;30.324;2022-07-29T00:02:41;19.50;99.90
18169;DHT22;49877;50.398;30.324;2022-07-29T00:05:08;19.50;99.90
18169;DHT22;49877;50.398;30.324;2022-07-29T00:07:39;19.50;99.90
18169;DHT22;49877;50.398;30.324;2022-07-29T00:10:06;19.50;99.90
18169;DHT22;49877;50.398;30.324;2022-07-29T00:12:33;19.40;99.90
18169;DHT22;49877;50.398;30.324;2022-07-29T00:15:02;19.50;99.90
18169;DHT22;49877;50.398;30.324;2022-07-29T00:17:29;19.40;99.90
18169;DHT22;49877;50.398;30.324;2022-07-29T00:19:56;19.40;99.90
18169;DHT22;49877;50.398;30.324;2022-07-29T00:22:22;19.30;99.90
18169;DHT22;49877;50.398;30.324;2022-07-29T00:24:49;19.20;99.90
18169;DHT22;49877;50.398;30.324;2022-07-29T00:27:17;19.20;99.90
18169;DHT22;49877;50.398;30.324;2022-07-29T00:29:44;19.10;99.90
18169;DHT22;49877;50.398;30.324;2022-07-29T00:32:12;19.10;99.90
18169;DHT22;49877;50.398;30.324;2022-07-29T00:34:39;19.00;99.90
18169;DHT22;49877;50.398;30.324;2022-07-29T00:37:24;18.90;99.90
18169;DHT22;49877;50.398;30.324;2022-07-29T00:39:51;19.00;99.90
18169;DHT22;49877;50.398;30.324;2022-07-29T00:42:18;19.00;99.90
18169;DHT22;49877;50.398;30.324;2022-07-29T00:44:45;18.90;99.90
18169;DHT22;49877;50.398;30.324;2022-07-29T00:47:13;18.90;99.90
18169;DHT22;49877;50.398;30.324;2022-07-29T00:49:41;18.90;99.90
18169;DHT22;49877;50.398;30.324;2022-07-29T00:52:09;18.90;99.90
18169;DHT22;49877;50.398;30.324;2022-07-29T00:54:38;18.90;99.90
18169;DHT22;49877;50.398;30.324;2022-07-29T00:57:06;18.90;99.90
18169;DHT22;49877;50.398;30.324;2022-07-29T00:59:34;18.90;99.90
18169;DHT22;49877;50.398;30.324;2022-07-29T01:02:01;18.80;99.90
18169;DHT22;49877;50.398;30.324;2022-07-29T01:04:30;18.80;99.90
18169;DHT22;49877;50.398;30.324;2022-07-29T01:06:57;18.80;99.90
18169;DHT22;49877;50.398;30.324;2022-07-29T01:09:24;18.80;99.90
18169;DHT22;49877;50.398;30.324;2022-07-29T01:11:52;18.80;99.90
18169;DHT22;49877;50.398;30.324;2022-07-29T01:14:21;18.70;99.90
18169;DHT22;49877;50.398;30.324;2022-07-29T01:16:53;18.70;99.90
18169;DHT22;49877;50.398;30.324;2022-07-29T01:19:39;18.70;99.90
18169;DHT22;49877;50.398;30.324;2022-07-29T01:22:26;18.60;99.90
18169;DHT22;49877;50.398;30.324;2022-07-29T01:25:21;18.60;99.90
18169;DHT22;49877;50.398;30.324;2022-07-29T01:28:01;18.50;99.90
18169;DHT22;49877;50.398;30.324;2022-07-29T01:30:38;18.40;99.90
18169;DHT22;49877;50.398;30.324;2022-07-29T01:33:10;18.40;99.90
18169;DHT22;49877;50.398;30.324;2022-07-29T01:35:59;18.30;99.90
18169;DHT22;49877;50.398;30.324;2022-07-29T01:38:28;18.20;99.90
18169;DHT22;49877;50.398;30.324;2022-07-29T01:41:02;18.20;99.90
18169;DHT22;49877;50.398;30.324;2022-07-29T01:43:34;18.20;99.90
18169;DHT22;49877;50.398;30.324;2022-07-29T01:46:06;18.20;99.90
18169;DHT22;49877;50.398;30.324;2022-07-29T01:48:40;18.20;99.90
18169;DHT22;49877;50.398;30.324;2022-07-29T01:51:14;18.10;99.90
18169;DHT22;49877;50.398;30.324;2022-07-29T01:53:45;18.10;99.90
18169;DHT22;49877;50.398;30.324;2022-07-29T01:56:14;18.10;99.90
18169;DHT22;49877;50.398;30.324;2022-07-29T01:58:43;18.10;99.90
18169;DHT22;49877;50.398;30.324;2022-07-29T02:01:13;18.10;99.90
18169;DHT22;49877;50.398;30.324;2022-07-29T02:03:43;18.10;99.90
18169;DHT22;49877;50.398;30.324;2022-07-29T02:06:13;18.10;99.90
18169;DHT22;49877;50.398;30.324;2022-07-29T02:08:41;18.00;99.90
18169;DHT22;49877;50.398;30.324;2022-07-29T02:11:08;18.10;99.90
18169;DHT22;49877;50.398;30.324;2022-07-29T02:13:36;18.00;99.90
18169;DHT22;49877;50.398;30.324;2022-07-29T02:16:06;18.10;99.90
18169;DHT22;49877;50.398;30.324;2022-07-29T02:18:36;18.10;99.90
18169;DHT22;49877;50.398;30.324;2022-07-29T02:21:04;18.00;99.90
18169;DHT22;49877;50.398;30.324;2022-07-29T02:23:32;18.00;99.90
18169;DHT22;49877;50.398;30.324;2022-07-29T02:26:02;18.00;99.90
18169;DHT22;49877;50.398;30.324;2022-07-29T02:28:30;18.00;99.90
18169;DHT22;49877;50.398;30.324;2022-07-29T02:31:00;18.00;99.90
18169;DHT22;49877;50.398;30.324;2022-07-29T02:33:30;18.00;99.90
18169;DHT22;49877;50.398;30.324;2022-07-29T02:35:59;18.00;99.90
18169;DHT22;49877;50.398;30.324;2022-07-29T02:38:27;18.00;99.90
18169;DHT22;49877;50.398;30.324;2022-07-29T02:41:12;17.90;99.90
18169;DHT22;49877;50.398;30.324;2022-07-29T02:43:42;17.90;99.90
18169;DHT22;49877;50.398;30.324;2022-07-29T02:46:13;17.90;99.90
18169;DHT22;49877;50.398;30.324;2022-07-29T02:48:44;17.90;99.90
18169;DHT22;49877;50.398;30.324;2022-07-29T02:51:19;17.90;99.90
18169;DHT22;49877;50.398;30.324;2022-07-29T02:53:51;17.80;99.90
18169;DHT22;49877;50.398;30.324;2022-07-29T02:56:25;17.90;99.90
18169;DHT22;49877;50.398;30.324;2022-07-29T02:58:55;17.90;99.90
18169;DHT22;49877;50.398;30.324;2022-07-29T03:01:24;17.90;99.90
18169;DHT22;49877;50.398;30.324;2022-07-29T03:03:54;17.90;99.90
18169;DHT22;49877;50.398;30.324;2022-07-29T03:06:25;17.90;99.90
18169;DHT22;49877;50.398;30.324;2022-07-29T03:08:54;17.90;99.90
18169;DHT22;49877;50.398;30.324;2022-07-29T03:11:22;18.00;99.90
18169;DHT22;49877;50.398;30.324;2022-07-29T03:13:50;18.00;99.90
18169;DHT22;49877;50.398;30.324;2022-07-29T03:16:18;18.00;99.90
18169;DHT22;49877;50.398;30.324;2022-07-29T03:18:46;18.00;99.90
18169;DHT22;49877;50.398;30.324;2022-07-29T03:21:13;18.10;99.90
18169;DHT22;49877;50.398;30.324;2022-07-29T03:23:45;18.10;99.90
18169;DHT22;49877;50.398;30.324;2022-07-29T03:26:12;18.10;99.90
18169;DHT22;49877;50.398;30.324;2022-07-29T03:28:39;18.20;99.90
18169;DHT22;49877;50.398;30.324;2022-07-29T03:31:06;18.20;99.90
18169;DHT22;49877;50.398;30.324;2022-07-29T03:33:33;18.30;99.90
18169;DHT22;49877;50.398;30.324;2022-07-29T03:36:00;18.40;99.90
18169;DHT22;49877;50.398;30.324;2022-07-29T03:38:29;18.50;99.90
18169;DHT22;49877;50.398;30.324;2022-07-29T03:41:01;18.50;99.90
18169;DHT22;49877;50.398;30.324;2022-07-29T03:43:31;18.60;99.90
18169;DHT22;49877;50.398;30.324;2022-07-29T03:46:00;18.60;99.90
18169;DHT22;49877;50.398;30.324;2022-07-29T03:48:28;18.70;99.90
18169;DHT22;49877;50.398;30.324;2022-07-29T03:50:57;18.80;99.90
18169;DHT22;49877;50.398;30.324;2022-07-29T03:53:24;18.80;99.90
18169;DHT22;49877;50.398;30.324;2022-07-29T03:55:57;18.90;99.90
18169;DHT22;49877;50.398;30.324;2022-07-29T03:58:27;19.00;99.90
18169;DHT22;49877;50.398;30.324;2022-07-29T04:00:55;19.10;99.90
18169;DHT22;49877;50.398;30.324;2022-07-29T04:03:22;19.10;99.90
18169;DHT22;49877;50.398;30.324;2022-07-29T04:05:58;19.20;99.90
18169;DHT22;49877;50.398;30.324;2022-07-29T04:08:25;19.20;99.90
18169;DHT22;49877;50.398;30.324;2022-07-29T04:10:52;19.30;99.90
18169;DHT22;49877;50.398;30.324;2022-07-29T04:13:20;19.40;99.90
18169;DHT22;49877;50.398;30.324;2022-07-29T04:15:48;19.50;99.90
18169;DHT22;49877;50.398;30.324;2022-07-29T04:18:15;19.60;99.90
18169;DHT22;49877;50.398;30.324;2022-07-29T04:20:42;19.60;99.90
18169;DHT22;49877;50.398;30.324;2022-07-29T04:23:09;19.70;99.90
18169;DHT22;49877;50.398;30.324;2022-07-29T04:25:37;19.80;99.90
18169;DHT22;49877;50.398;30.324;2022-07-29T04:28:05;19.90;99.90
18169;DHT22;49877;50.398;30.324;2022-07-29T04:30:33;20.00;99.90
18169;DHT22;49877;50.398;30.324;2022-07-29T04:33:03;20.10;99.90
18169;DHT22;49877;50.398;30.324;2022-07-29T04:35:33;20.20;99.90
18169;DHT22;49877;50.398;30.324;2022-07-29T04:38:00;20.30;99.90
18169;DHT22;49877;50.398;30.324;2022-07-29T04:40:27;20.40;99.90
18169;DHT22;49877;50.398;30.324;2022-07-29T04:42:54;20.50;99.90
18169;DHT22;49877;50.398;30.324;2022-07-29T04:45:21;20.60;99.90
18169;DHT22;49877;50.398;30.324;2022-07-29T04:47:48;20.70;99.90
18169;DHT22;49877;50.398;30.324;2022-07-29T04:50:17;20.80;99.90
18169;DHT22;49877;50.398;30.324;2022-07-29T04:52:44;20.90;99.90
18169;DHT22;49877;50.398;30.324;2022-07-29T04:55:10;21.00;99.90
18169;DHT22;49877;50.398;30.324;2022-07-29T04:57:37;21.10;99.90
18169;DHT22;49877;50.398;30.324;2022-07-29T05:00:06;21.20;99.90
18169;DHT22;49877;50.398;30.324;2022-07-29T05:02:33;21.20;99.90
18169;DHT22;49877;50.398;30.324;2022-07-29T05:05:00;21.30;99.90
18169;DHT22;49877;50.398;30.324;2022-07-29T05:07:28;21.30;99.90
18169;DHT22;49877;50.398;30.324;2022-07-29T05:09:55;21.40;99.90
18169;DHT22;49877;50.398;30.324;2022-07-29T05:12:22;21.50;99.90
18169;DHT22;49877;50.398;30.324;2022-07-29T05:14:49;21.50;99.90
18169;DHT22;49877;50.398;30.324;2022-07-29T05:17:16;21.60;99.90
18169;DHT22;49877;50.398;30.324;2022-07-29T05:19:43;21.70;99.90
18169;DHT22;49877;50.398;30.324;2022-07-29T05:22:10;21.80;99.90
18169;DHT22;49877;50.398;30.324;2022-07-29T05:24:39;21.80;99.90
18169;DHT22;49877;50.398;30.324;2022-07-29T05:27:06;22.00;99.90
18169;DHT22;49877;50.398;30.324;2022-07-29T05:29:33;22.10;99.90
18169;DHT22;49877;50.398;30.324;2022-07-29T05:32:00;22.10;99.90
18169;DHT22;49877;50.398;30.324;2022-07-29T05:34:26;22.20;99.90
18169;DHT22;49877;50.398;30.324;2022-07-29T05:36:53;22.30;99.90
18169;DHT22;49877;50.398;30.324;2022-07-29T05:39:20;22.30;99.90
18169;DHT22;49877;50.398;30.324;2022-07-29T05:41:49;22.40;99.90
18169;DHT22;49877;50.398;30.324;2022-07-29T05:44:16;22.50;99.90
18169;DHT22;49877;50.398;30.324;2022-07-29T05:46:43;22.60;99.90
18169;DHT22;49877;50.398;30.324;2022-07-29T05:49:09;22.70;99.90
18169;DHT22;49877;50.398;30.324;2022-07-29T05:51:36;22.70;99.90
18169;DHT22;49877;50.398;30.324;2022-07-29T05:54:03;22.80;99.90
18169;DHT22;49877;50.398;30.324;2022-07-29T05:56:30;22.90;99.90
18169;DHT22;49877;50.398;30.324;2022-07-29T05:58:58;22.90;99.90
18169;DHT22;49877;50.398;30.324;2022-07-29T06:01:25;23.00;99.90
18169;DHT22;49877;50.398;30.324;2022-07-29T06:03:52;23.10;99.90
18169;DHT22;49877;50.398;30.324;2022-07-29T06:06:19;23.20;99.90
18169;DHT22;49877;50.398;30.324;2022-07-29T06:08:46;23.30;99.90
18169;DHT22;49877;50.398;30.324;2022-07-29T06:11:13;23.30;99.90
18169;DHT22;49877;50.398;30.324;2022-07-29T06:13:40;23.40;99.90
18169;DHT22;49877;50.398;30.324;2022-07-29T06:16:08;23.50;99.90
18169;DHT22;49877;50.398;30.324;2022-07-29T06:18:35;23.60;99.90
18169;DHT22;49877;50.398;30.324;2022-07-29T06:21:07;23.60;99.90
18169;DHT22;49877;50.398;30.324;2022-07-29T06:23:35;23.70;99.90
18169;DHT22;49877;50.398;30.324;2022-07-29T06:26:03;23.80;99.90
18169;DHT22;49877;50.398;30.324;2022-07-29T06:28:30;23.80;99.90
18169;DHT22;49877;50.398;30.324;2022-07-29T06:30:57;23.90;99.90
18169;DHT22;49877;50.398;30.324;2022-07-29T06:33:25;23.80;99.90
18169;DHT22;49877;50.398;30.324;2022-07-29T06:35:52;23.90;99.90
18169;DHT22;49877;50.398;30.324;2022-07-29T06:38:19;24.00;99.90
18169;DHT22;49877;50.398;30.324;2022-07-29T06:40:46;24.00;99.90
18169;DHT22;49877;50.398;30.324;2022-07-29T06:43:30;24.10;99.90
18169;DHT22;49877;50.398;30.324;2022-07-29T06:46:00;24.20;99.90
18169;DHT22;49877;50.398;30.324;2022-07-29T06:48:28;24.30;99.90
18169;DHT22;49877;50.398;30.324;2022-07-29T06:50:55;24.40;99.90
18169;DHT22;49877;50.398;30.324;2022-07-29T06:53:22;24.50;99.90
18169;DHT22;49877;50.398;30.324;2022-07-29T06:55:50;24.60;99.90
18169;DHT22;49877;50.398;30.324;2022-07-29T06:58:17;24.70;99.90
18169;DHT22;49877;50.398;30.324;2022-07-29T07:00:46;24.70;99.90
18169;DHT22;49877;50.398;30.324;2022-07-29T07:03:13;24.80;99.90
18169;DHT22;49877;50.398;30.324;2022-07-29T07:05:41;24.90;99.90
18169;DHT22;49877;50.398;30.324;2022-07-29T07:08:08;25.00;99.90
18169;DHT22;49877;50.398;30.324;2022-07-29T07:10:35;25.00;99.70
18169;DHT22;49877;50.398;30.324;2022-07-29T07:13:02;25.10;99.90
18169;DHT22;49877;50.398;30.324;2022-07-29T07:15:29;25.10;99.60
18169;DHT22;49877;50.398;30.324;2022-07-29T07:17:56;25.20;99.50
18169;DHT22;49877;50.398;30.324;2022-07-29T07:20:24;25.20;99.50
18169;DHT22;49877;50.398;30.324;2022-07-29T07:22:52;25.30;99.50
18169;DHT22;49877;50.398;30.324;2022-07-29T07:25:19;25.30;99.60
18169;DHT22;49877;50.398;30.324;2022-07-29T07:27:46;25.40;99.40
18169;DHT22;49877;50.398;30.324;2022-07-29T07:30:13;25.40;99.00
18169;DHT22;49877;50.398;30.324;2022-07-29T07:32:40;25.40;98.80
18169;DHT22;49877;50.398;30.324;2022-07-29T07:35:09;25.50;98.80
18169;DHT22;49877;50.398;30.324;2022-07-29T07:37:37;25.50;98.50
18169;DHT22;49877;50.398;30.324;2022-07-29T07:40:06;25.60;98.40
18169;DHT22;49877;50.398;30.324;2022-07-29T07:42:34;25.70;98.50
18169;DHT22;49877;50.398;30.324;2022-07-29T07:45:01;25.70;98.80
18169;DHT22;49877;50.398;30.324;2022-07-29T07:47:28;25.80;98.60
18169;DHT22;49877;50.398;30.324;2022-07-29T07:49:55;25.90;98.40
18169;DHT22;49877;50.398;30.324;2022-07-29T07:52:22;25.90;97.90
18169;DHT22;49877;50.398;30.324;2022-07-29T07:54:49;26.00;98.10
18169;DHT22;49877;50.398;30.324;2022-07-29T07:57:17;25.90;97.20
18169;DHT22;49877;50.398;30.324;2022-07-29T07:59:44;26.00;97.40
18169;DHT22;49877;50.398;30.324;2022-07-29T08:02:11;26.00;97.40
18169;DHT22;49877;50.398;30.324;2022-07-29T08:04:38;26.00;97.30
18169;DHT22;49877;50.398;30.324;2022-07-29T08:07:07;26.00;97.30
18169;DHT22;49877;50.398;30.324;2022-07-29T08:09:34;26.10;97.50
18169;DHT22;49877;50.398;30.324;2022-07-29T08:12:02;26.20;97.40
18169;DHT22;49877;50.398;30.324;2022-07-29T08:14:32;26.30;96.90
18169;DHT22;49877;50.398;30.324;2022-07-29T08:17:00;26.40;96.80
18169;DHT22;49877;50.398;30.324;2022-07-29T08:19:27;26.40;96.40
18169;DHT22;49877;50.398;30.324;2022-07-29T08:21:53;26.50;96.40
18169;DHT22;49877;50.398;30.324;2022-07-29T08:24:21;26.60;96.40
18169;DHT22;49877;50.398;30.324;2022-07-29T08:27:05;26.70;96.50
18169;DHT22;49877;50.398;30.324;2022-07-29T08:29:34;26.80;96.20
18169;DHT22;49877;50.398;30.324;2022-07-29T08:32:01;26.90;96.20
18169;DHT22;49877;50.398;30.324;2022-07-29T08:34:28;27.00;96.30
18169;DHT22;49877;50.398;30.324;2022-07-29T08:36:55;27.20;96.40
18169;DHT22;49877;50.398;30.324;2022-07-29T08:39:23;27.40;96.30
18169;DHT22;49877;50.398;30.324;2022-07-29T08:41:50;27.50;95.90
18169;DHT22;49877;50.398;30.324;2022-07-29T08:44:17;27.60;96.00
18169;DHT22;49877;50.398;30.324;2022-07-29T08:46:45;27.70;96.10
18169;DHT22;49877;50.398;30.324;2022-07-29T08:49:12;27.80;95.90
18169;DHT22;49877;50.398;30.324;2022-07-29T08:51:40;27.80;95.20
18169;DHT22;49877;50.398;30.324;2022-07-29T08:54:08;27.90;95.40
18169;DHT22;49877;50.398;30.324;2022-07-29T08:56:36;28.00;94.80
18169;DHT22;49877;50.398;30.324;2022-07-29T08:59:05;28.10;94.70
18169;DHT22;49877;50.398;30.324;2022-07-29T09:01:33;28.20;94.40
18169;DHT22;49877;50.398;30.324;2022-07-29T09:04:04;28.30;94.40
18169;DHT22;49877;50.398;30.324;2022-07-29T09:06:34;28.30;93.70
18169;DHT22;49877;50.398;30.324;2022-07-29T09:09:03;28.40;93.80
18169;DHT22;49877;50.398;30.324;2022-07-29T09:11:32;28.50;93.50
18169;DHT22;49877;50.398;30.324;2022-07-29T09:13:59;28.50;93.70
18169;DHT22;49877;50.398;30.324;2022-07-29T09:16:26;28.60;92.70
18169;DHT22;49877;50.398;30.324;2022-07-29T09:18:52;28.50;92.70
18169;DHT22;49877;50.398;30.324;2022-07-29T09:21:21;28.40;92.50
18169;DHT22;49877;50.398;30.324;2022-07-29T09:24:06;28.50;93.00
18169;DHT22;49877;50.398;30.324;2022-07-29T09:26:35;28.60;93.40
18169;DHT22;49877;50.398;30.324;2022-07-29T09:29:09;28.50;92.70
18169;DHT22;49877;50.398;30.324;2022-07-29T09:31:38;28.40;91.90
18169;DHT22;49877;50.398;30.324;2022-07-29T09:34:06;28.10;92.10
18169;DHT22;49877;50.398;30.324;2022-07-29T09:36:40;27.90;92.20
18169;DHT22;49877;50.398;30.324;2022-07-29T09:39:07;27.80;92.40
18169;DHT22;49877;50.398;30.324;2022-07-29T09:41:48;27.80;92.80
18169;DHT22;49877;50.398;30.324;2022-07-29T09:44:15;27.80;92.90
18169;DHT22;49877;50.398;30.324;2022-07-29T09:46:53;27.70;92.60
18169;DHT22;49877;50.398;30.324;2022-07-29T09:49:20;27.70;92.40
18169;DHT22;49877;50.398;30.324;2022-07-29T09:51:59;27.70;92.70
18169;DHT22;49877;50.398;30.324;2022-07-29T09:54:26;27.70;92.70
18169;DHT22;49877;50.398;30.324;2022-07-29T09:56:55;27.70;92.90
18169;DHT22;49877;50.398;30.324;2022-07-29T09:59:22;27.80;92.60
18169;DHT22;49877;50.398;30.324;2022-07-29T10:01:52;27.60;92.50
18169;DHT22;49877;50.398;30.324;2022-07-29T10:04:19;27.60;92.70
18169;DHT22;49877;50.398;30.324;2022-07-29T10:06:57;27.60;92.80
18169;DHT22;49877;50.398;30.324;2022-07-29T10:09:25;27.70;92.80
18169;DHT22;49877;50.398;30.324;2022-07-29T10:12:09;27.80;92.70
18169;DHT22;49877;50.398;30.324;2022-07-29T10:14:36;27.80;92.30
18169;DHT22;49877;50.398;30.324;2022-07-29T10:17:05;27.70;92.50
18169;DHT22;49877;50.398;30.324;2022-07-29T10:19:33;27.70;92.20
18169;DHT22;49877;50.398;30.324;2022-07-29T10:22:04;27.70;92.30
18169;DHT22;49877;50.398;30.324;2022-07-29T10:24:31;27.70;92.60
18169;DHT22;49877;50.398;30.324;2022-07-29T10:27:00;27.70;92.60
18169;DHT22;49877;50.398;30.324;2022-07-29T10:29:28;27.70;92.60
18169;DHT22;49877;50.398;30.324;2022-07-29T10:32:21;27.70;92.70
18169;DHT22;49877;50.398;30.324;2022-07-29T10:35:09;27.80;92.70
18169;DHT22;49877;50.398;30.324;2022-07-29T10:37:52;27.90;92.90
18169;DHT22;49877;50.398;30.324;2022-07-29T10:40:28;27.90;92.90
18169;DHT22;49877;50.398;30.324;2022-07-29T10:43:19;28.00;92.80
18169;DHT22;49877;50.398;30.324;2022-07-29T10:45:48;28.00;92.50
18169;DHT22;49877;50.398;30.324;2022-07-29T10:48:15;28.00;92.30
18169;DHT22;49877;50.398;30.324;2022-07-29T10:50:56;28.00;92.50
18169;DHT22;49877;50.398;30.324;2022-07-29T10:53:46;28.10;92.80
18169;DHT22;49877;50.398;30.324;2022-07-29T10:56:23;28.10;92.20
18169;DHT22;49877;50.398;30.324;2022-07-29T10:59:24;28.10;92.40
18169;DHT22;49877;50.398;30.324;2022-07-29T11:01:52;28.10;92.70
18169;DHT22;49877;50.398;30.324;2022-07-29T11:07:20;28.10;92.80
18169;DHT22;49877;50.398;30.324;2022-07-29T11:10:22;28.00;92.80
18169;DHT22;49877;50.398;30.324;2022-07-29T11:12:50;28.20;92.70
18169;DHT22;49877;50.398;30.324;2022-07-29T11:15:19;28.30;92.50
18169;DHT22;49877;50.398;30.324;2022-07-29T11:18:06;28.40;91.80
18169;DHT22;49877;50.398;30.324;2022-07-29T11:20:35;28.50;92.10
18169;DHT22;49877;50.398;30.324;2022-07-29T11:23:20;28.60;91.60
18169;DHT22;49877;50.398;30.324;2022-07-29T11:26:18;28.80;91.80
18169;DHT22;49877;50.398;30.324;2022-07-29T11:29:03;28.90;91.80
18169;DHT22;49877;50.398;30.324;2022-07-29T11:31:36;29.00;91.80
18169;DHT22;49877;50.398;30.324;2022-07-29T11:34:20;29.10;92.00
18169;DHT22;49877;50.398;30.324;2022-07-29T11:37:19;29.10;91.20
18169;DHT22;49877;50.398;30.324;2022-07-29T11:42:40;29.20;90.80
18169;DHT22;49877;50.398;30.324;2022-07-29T11:45:09;29.30;90.40
18169;DHT22;49877;50.398;30.324;2022-07-29T11:47:37;29.40;90.30
18169;DHT22;49877;50.398;30.324;2022-07-29T11:50:06;29.40;89.80
18169;DHT22;49877;50.398;30.324;2022-07-29T11:52:35;29.40;90.10
18169;DHT22;49877;50.398;30.324;2022-07-29T11:55:04;29.50;90.30
18169;DHT22;49877;50.398;30.324;2022-07-29T11:57:32;29.60;90.00
18169;DHT22;49877;50.398;30.324;2022-07-29T12:00:01;29.60;90.10
18169;DHT22;49877;50.398;30.324;2022-07-29T12:02:39;29.60;90.20
18169;DHT22;49877;50.398;30.324;2022-07-29T12:05:08;29.60;90.10
18169;DHT22;49877;50.398;30.324;2022-07-29T12:07:36;29.50;90.50
18169;DHT22;49877;50.398;30.324;2022-07-29T12:10:05;29.40;90.10
18169;DHT22;49877;50.398;30.324;2022-07-29T12:12:33;29.40;90.30
18169;DHT22;49877;50.398;30.324;2022-07-29T12:15:13;29.30;90.10
18169;DHT22;49877;50.398;30.324;2022-07-29T12:17:40;29.20;90.20
18169;DHT22;49877;50.398;30.324;2022-07-29T12:20:08;29.10;90.30
18169;DHT22;49877;50.398;30.324;2022-07-29T12:22:37;29.10;90.40
18169;DHT22;49877;50.398;30.324;2022-07-29T12:25:07;29.00;90.50
18169;DHT22;49877;50.398;30.324;2022-07-29T12:27:35;29.00;90.70
18169;DHT22;49877;50.398;30.324;2022-07-29T12:30:05;29.00;90.70
18169;DHT22;49877;50.398;30.324;2022-07-29T12:32:35;28.90;90.60
18169;DHT22;49877;50.398;30.324;2022-07-29T12:35:04;28.80;90.70
18169;DHT22;49877;50.398;30.324;2022-07-29T12:37:33;28.80;91.10
18169;DHT22;49877;50.398;30.324;2022-07-29T12:40:01;28.70;91.10
18169;DHT22;49877;50.398;30.324;2022-07-29T12:42:28;28.70;91.10
18169;DHT22;49877;50.398;30.324;2022-07-29T12:44:55;28.70;91.10
18169;DHT22;49877;50.398;30.324;2022-07-29T12:47:22;28.70;91.10
18169;DHT22;49877;50.398;30.324;2022-07-29T12:49:50;28.70;91.30
18169;DHT22;49877;50.398;30.324;2022-07-29T12:52:28;28.80;91.20
18169;DHT22;49877;50.398;30.324;2022-07-29T12:54:55;28.80;91.40
18169;DHT22;49877;50.398;30.324;2022-07-29T12:57:22;28.60;90.70
18169;DHT22;49877;50.398;30.324;2022-07-29T13:00:00;28.60;90.70
18169;DHT22;49877;50.398;30.324;2022-07-29T13:02:28;28.50;90.80
18169;DHT22;49877;50.398;30.324;2022-07-29T13:04:57;28.60;90.90
18169;DHT22;49877;50.398;30.324;2022-07-29T13:07:26;28.60;90.70
18169;DHT22;49877;50.398;30.324;2022-07-29T13:09:58;28.60;90.90
18169;DHT22;49877;50.398;30.324;2022-07-29T13:12:36;28.70;91.20
18169;DHT22;49877;50.398;30.324;2022-07-29T13:15:12;28.80;91.00
18169;DHT22;49877;50.398;30.324;2022-07-29T13:17:41;28.80;90.80
18169;DHT22;49877;50.398;30.324;2022-07-29T13:20:12;28.70;91.00
18169;DHT22;49877;50.398;30.324;2022-07-29T13:22:40;28.70;90.90
18169;DHT22;49877;50.398;30.324;2022-07-29T13:25:08;28.70;90.90
18169;DHT22;49877;50.398;30.324;2022-07-29T13:27:38;28.70;91.10
18169;DHT22;49877;50.398;30.324;2022-07-29T13:30:07;28.80;90.80
18169;DHT22;49877;50.398;30.324;2022-07-29T13:32:34;28.80;91.10
18169;DHT22;49877;50.398;30.324;2022-07-29T13:35:04;28.90;91.10
18169;DHT22;49877;50.398;30.324;2022-07-29T13:37:33;28.90;91.30
18169;DHT22;49877;50.398;30.324;2022-07-29T13:40:04;28.90;90.70
18169;DHT22;49877;50.398;30.324;2022-07-29T13:42:32;28.90;90.90
18169;DHT22;49877;50.398;30.324;2022-07-29T13:44:59;28.90;90.60
18169;DHT22;49877;50.398;30.324;2022-07-29T13:47:27;28.90;90.70
18169;DHT22;49877;50.398;30.324;2022-07-29T13:49:54;28.90;90.80
18169;DHT22;49877;50.398;30.324;2022-07-29T13:52:21;29.00;91.00
18169;DHT22;49877;50.398;30.324;2022-07-29T13:54:49;29.10;90.90
18169;DHT22;49877;50.398;30.324;2022-07-29T13:57:16;29.10;90.70
18169;DHT22;49877;50.398;30.324;2022-07-29T13:59:43;29.10;90.70
18169;DHT22;49877;50.398;30.324;2022-07-29T14:02:11;29.00;91.00
18169;DHT22;49877;50.398;30.324;2022-07-29T14:04:39;28.90;90.70
18169;DHT22;49877;50.398;30.324;2022-07-29T14:07:07;28.80;90.90
18169;DHT22;49877;50.398;30.324;2022-07-29T14:09:33;28.70;90.60
18169;DHT22;49877;50.398;30.324;2022-07-29T14:12:02;28.60;90.80
18169;DHT22;49877;50.398;30.324;2022-07-29T14:14:29;28.50;90.90
18169;DHT22;49877;50.398;30.324;2022-07-29T14:16:58;28.40;91.00
18169;DHT22;49877;50.398;30.324;2022-07-29T14:19:24;28.50;91.10
18169;DHT22;49877;50.398;30.324;2022-07-29T14:21:51;28.50;91.00
18169;DHT22;49877;50.398;30.324;2022-07-29T14:24:18;28.50;90.90
18169;DHT22;49877;50.398;30.324;2022-07-29T14:26:45;28.50;90.90
18169;DHT22;49877;50.398;30.324;2022-07-29T14:29:13;28.60;90.80
18169;DHT22;49877;50.398;30.324;2022-07-29T14:31:40;28.50;90.60
18169;DHT22;49877;50.398;30.324;2022-07-29T14:34:08;28.50;90.80
18169;DHT22;49877;50.398;30.324;2022-07-29T14:36:35;28.50;90.90
18169;DHT22;49877;50.398;30.324;2022-07-29T14:39:02;28.60;90.90
18169;DHT22;49877;50.398;30.324;2022-07-29T14:41:29;28.60;90.60
18169;DHT22;49877;50.398;30.324;2022-07-29T14:43:56;28.60;90.80
18169;DHT22;49877;50.398;30.324;2022-07-29T14:46:27;28.60;90.80
18169;DHT22;49877;50.398;30.324;2022-07-29T14:48:54;28.60;90.80
18169;DHT22;49877;50.398;30.324;2022-07-29T14:51:21;28.60;91.00
18169;DHT22;49877;50.398;30.324;2022-07-29T14:53:48;28.60;91.50
18169;DHT22;49877;50.398;30.324;2022-07-29T14:56:15;28.60;91.90
18169;DHT22;49877;50.398;30.324;2022-07-29T14:58:42;28.60;91.70
18169;DHT22;49877;50.398;30.324;2022-07-29T15:01:09;28.60;92.00
18169;DHT22;49877;50.398;30.324;2022-07-29T15:03:37;28.60;92.00
18169;DHT22;49877;50.398;30.324;2022-07-29T15:06:04;28.50;91.80
18169;DHT22;49877;50.398;30.324;2022-07-29T15:08:31;28.40;92.00
18169;DHT22;49877;50.398;30.324;2022-07-29T15:10:58;28.20;91.80
18169;DHT22;49877;50.398;30.324;2022-07-29T15:13:26;28.20;91.80
18169;DHT22;49877;50.398;30.324;2022-07-29T15:15:53;28.10;91.70
18169;DHT22;49877;50.398;30.324;2022-07-29T15:18:20;28.10;91.90
18169;DHT22;49877;50.398;30.324;2022-07-29T15:20:48;28.00;92.10
18169;DHT22;49877;50.398;30.324;2022-07-29T15:23:15;28.00;92.10
18169;DHT22;49877;50.398;30.324;2022-07-29T15:25:42;28.00;92.10
18169;DHT22;49877;50.398;30.324;2022-07-29T15:28:09;28.00;92.50
18169;DHT22;49877;50.398;30.324;2022-07-29T15:30:36;27.90;92.30
18169;DHT22;49877;50.398;30.324;2022-07-29T15:33:06;27.90;92.30
18169;DHT22;49877;50.398;30.324;2022-07-29T15:35:34;27.90;92.30